sensor_id;sensor_type;location;lat;lon;timestamp;P1;durP1;ratioP1;P2;durP2;ratioP2
51618;SDS011;38518;53.164;5.430;2023-06-14T00:01:50;6.72;;;2.63;;
51618;SDS011;38518;53.164;5.430;2023-06-14T00:04:18;3.15;;;2.38;;
51618;SDS011;38518;53.164;5.430;2023-06-14T00:06:48;5.25;;;2.60;;
51618;SDS011;38518;53.164;5.430;2023-06-14T00:09:15;5.00;;;2.92;;
51618;SDS011;38518;53.164;5.430;2023-06-14T00:11:42;6.05;;;2.30;;
51618;SDS011;38518;53.164;5.430;2023-06-14T00:14:09;7.63;;;2.60;;
51618;SDS011;38518;53.164;5.430;2023-06-14T00:16:35;6.05;;;2.58;;
51618;SDS011;38518;53.164;5.430;2023-06-14T00:19:03;4.32;;;2.78;;
51618;SDS011;38518;53.164;5.430;2023-06-14T00:21:32;7.72;;;2.40;;
51618;SDS011;38518;53.164;5.430;2023-06-14T00:23:58;6.93;;;2.83;;
51618;SDS011;38518;53.164;5.430;2023-06-14T00:26:25;5.78;;;2.67;;
51618;SDS011;38518;53.164;5.430;2023-06-14T00:28:51;4.55;;;2.42;;
51618;SDS011;38518;53.164;5.430;2023-06-14T00:31:17;4.47;;;2.30;;
51618;SDS011;38518;53.164;5.430;2023-06-14T00:33:43;5.30;;;2.78;;
51618;SDS011;38518;53.164;5.430;2023-06-14T00:36:10;4.38;;;2.70;;
51618;SDS011;38518;53.164;5.430;2023-06-14T00:38:36;4.40;;;2.70;;
51618;SDS011;38518;53.164;5.430;2023-06-14T00:41:02;9.23;;;2.35;;
51618;SDS011;38518;53.164;5.430;2023-06-14T00:43:27;6.18;;;2.63;;
51618;SDS011;38518;53.164;5.430;2023-06-14T00:45:53;4.95;;;2.70;;
51618;SDS011;38518;53.164;5.430;2023-06-14T00:48:19;8.43;;;2.50;;
51618;SDS011;38518;53.164;5.430;2023-06-14T00:50:49;3.85;;;2.60;;
51618;SDS011;38518;53.164;5.430;2023-06-14T00:53:16;4.70;;;2.60;;
51618;SDS011;38518;53.164;5.430;2023-06-14T00:55:45;3.85;;;2.53;;
51618;SDS011;38518;53.164;5.430;2023-06-14T00:58:14;5.93;;;2.78;;
51618;SDS011;38518;53.164;5.430;2023-06-14T01:00:41;5.53;;;2.65;;
51618;SDS011;38518;53.164;5.430;2023-06-14T01:03:07;6.80;;;2.70;;
51618;SDS011;38518;53.164;5.430;2023-06-14T01:05:37;7.22;;;2.63;;
51618;SDS011;38518;53.164;5.430;2023-06-14T01:10:41;4.13;;;2.42;;
51618;SDS011;38518;53.164;5.430;2023-06-14T01:13:23;5.63;;;2.92;;
51618;SDS011;38518;53.164;5.430;2023-06-14T01:15:57;3.25;;;2.40;;
51618;SDS011;38518;53.164;5.430;2023-06-14T01:18:24;4.28;;;2.35;;
51618;SDS011;38518;53.164;5.430;2023-06-14T01:20:51;5.50;;;2.90;;
51618;SDS011;38518;53.164;5.430;2023-06-14T01:23:20;5.53;;;2.55;;
51618;SDS011;38518;53.164;5.430;2023-06-14T01:25:47;5.65;;;2.47;;
51618;SDS011;38518;53.164;5.430;2023-06-14T01:28:17;3.97;;;2.50;;
51618;SDS011;38518;53.164;5.430;2023-06-14T01:30:49;5.50;;;2.35;;
51618;SDS011;38518;53.164;5.430;2023-06-14T01:33:19;4.25;;;2.60;;
51618;SDS011;38518;53.164;5.430;2023-06-14T01:35:52;6.60;;;2.72;;
51618;SDS011;38518;53.164;5.430;2023-06-14T01:38:19;5.30;;;2.45;;
51618;SDS011;38518;53.164;5.430;2023-06-14T01:40:47;6.03;;;3.10;;
51618;SDS011;38518;53.164;5.430;2023-06-14T01:43:16;5.03;;;2.47;;
51618;SDS011;38518;53.164;5.430;2023-06-14T01:45:43;6.90;;;2.70;;
51618;SDS011;38518;53.164;5.430;2023-06-14T01:48:20;3.85;;;2.10;;
51618;SDS011;38518;53.164;5.430;2023-06-14T01:50:46;6.03;;;2.70;;
51618;SDS011;38518;53.164;5.430;2023-06-14T01:53:13;8.73;;;2.63;;
51618;SDS011;38518;53.164;5.430;2023-06-14T01:55:39;6.20;;;2.28;;
51618;SDS011;38518;53.164;5.430;2023-06-14T01:58:08;8.00;;;2.55;;
51618;SDS011;38518;53.164;5.430;2023-06-14T02:00:35;4.90;;;2.47;;
51618;SDS011;38518;53.164;5.430;2023-06-14T02:03:01;3.67;;;2.47;;
51618;SDS011;38518;53.164;5.430;2023-06-14T02:05:29;5.38;;;2.50;;
51618;SDS011;38518;53.164;5.430;2023-06-14T02:07:55;7.07;;;2.70;;
51618;SDS011;38518;53.164;5.430;2023-06-14T02:10:21;6.05;;;2.25;;
51618;SDS011;38518;53.164;5.430;2023-06-14T02:12:47;4.70;;;2.60;;
51618;SDS011;38518;53.164;5.430;2023-06-14T02:15:13;4.68;;;2.58;;
51618;SDS011;38518;53.164;5.430;2023-06-14T02:17:42;7.85;;;2.40;;
51618;SDS011;38518;53.164;5.430;2023-06-14T02:20:08;3.80;;;2.20;;
51618;SDS011;38518;53.164;5.430;2023-06-14T02:22:34;3.72;;;2.40;;
51618;SDS011;38518;53.164;5.430;2023-06-14T02:25:00;4.15;;;2.50;;
51618;SDS011;38518;53.164;5.430;2023-06-14T02:27:26;4.95;;;2.45;;
51618;SDS011;38518;53.164;5.430;2023-06-14T02:29:51;5.60;;;2.55;;
51618;SDS011;38518;53.164;5.430;2023-06-14T02:32:17;3.17;;;2.45;;
51618;SDS011;38518;53.164;5.430;2023-06-14T02:34:43;4.57;;;2.65;;
51618;SDS011;38518;53.164;5.430;2023-06-14T02:37:09;3.67;;;2.28;;
51618;SDS011;38518;53.164;5.430;2023-06-14T02:39:36;6.00;;;2.83;;
51618;SDS011;38518;53.164;5.430;2023-06-14T02:42:02;4.35;;;2.45;;
51618;SDS011;38518;53.164;5.430;2023-06-14T02:44:27;4.57;;;2.88;;
51618;SDS011;38518;53.164;5.430;2023-06-14T02:46:54;3.97;;;2.55;;
51618;SDS011;38518;53.164;5.430;2023-06-14T02:49:21;3.63;;;2.58;;
51618;SDS011;38518;53.164;5.430;2023-06-14T02:51:47;5.75;;;2.50;;
51618;SDS011;38518;53.164;5.430;2023-06-14T02:54:13;2.90;;;2.40;;
51618;SDS011;38518;53.164;5.430;2023-06-14T02:56:39;5.85;;;2.55;;
51618;SDS011;38518;53.164;5.430;2023-06-14T02:59:05;3.65;;;2.33;;
51618;SDS011;38518;53.164;5.430;2023-06-14T03:01:32;5.32;;;2.60;;
51618;SDS011;38518;53.164;5.430;2023-06-14T03:04:06;5.30;;;2.40;;
51618;SDS011;38518;53.164;5.430;2023-06-14T03:06:33;3.50;;;2.60;;
51618;SDS011;38518;53.164;5.430;2023-06-14T03:08:59;6.10;;;2.67;;
51618;SDS011;38518;53.164;5.430;2023-06-14T03:11:29;5.63;;;2.70;;
51618;SDS011;38518;53.164;5.430;2023-06-14T03:13:55;3.05;;;2.50;;
51618;SDS011;38518;53.164;5.430;2023-06-14T03:16:21;6.18;;;2.38;;
51618;SDS011;38518;53.164;5.430;2023-06-14T03:18:49;5.35;;;2.38;;
51618;SDS011;38518;53.164;5.430;2023-06-14T03:21:16;6.13;;;2.50;;
51618;SDS011;38518;53.164;5.430;2023-06-14T03:23:42;9.25;;;3.22;;
51618;SDS011;38518;53.164;5.430;2023-06-14T03:26:09;3.33;;;2.63;;
51618;SDS011;38518;53.164;5.430;2023-06-14T03:28:38;8.15;;;3.00;;
51618;SDS011;38518;53.164;5.430;2023-06-14T03:31:03;3.97;;;2.67;;
51618;SDS011;38518;53.164;5.430;2023-06-14T03:33:29;5.07;;;2.40;;
51618;SDS011;38518;53.164;5.430;2023-06-14T03:35:55;4.82;;;3.03;;
51618;SDS011;38518;53.164;5.430;2023-06-14T03:38:21;4.05;;;2.83;;
51618;SDS011;38518;53.164;5.430;2023-06-14T03:40:47;6.65;;;3.08;;
51618;SDS011;38518;53.164;5.430;2023-06-14T03:43:13;6.93;;;3.10;;
51618;SDS011;38518;53.164;5.430;2023-06-14T03:45:39;4.70;;;2.50;;
51618;SDS011;38518;53.164;5.430;2023-06-14T03:48:05;4.47;;;2.50;;
51618;SDS011;38518;53.164;5.430;2023-06-14T03:50:32;4.15;;;2.72;;
51618;SDS011;38518;53.164;5.430;2023-06-14T03:52:58;4.18;;;2.70;;
51618;SDS011;38518;53.164;5.430;2023-06-14T03:55:23;4.68;;;2.83;;
51618;SDS011;38518;53.164;5.430;2023-06-14T03:57:51;4.05;;;2.55;;
51618;SDS011;38518;53.164;5.430;2023-06-14T04:00:17;6.18;;;2.80;;
51618;SDS011;38518;53.164;5.430;2023-06-14T04:02:43;5.50;;;2.75;;
51618;SDS011;38518;53.164;5.430;2023-06-14T04:05:09;5.05;;;3.00;;
51618;SDS011;38518;53.164;5.430;2023-06-14T04:07:35;5.95;;;2.72;;
51618;SDS011;38518;53.164;5.430;2023-06-14T04:10:09;5.60;;;2.85;;
51618;SDS011;38518;53.164;5.430;2023-06-14T04:12:37;3.72;;;3.00;;
51618;SDS011;38518;53.164;5.430;2023-06-14T04:15:03;4.07;;;2.75;;
51618;SDS011;38518;53.164;5.430;2023-06-14T04:17:31;4.47;;;3.20;;
51618;SDS011;38518;53.164;5.430;2023-06-14T04:20:00;4.60;;;3.13;;
51618;SDS011;38518;53.164;5.430;2023-06-14T04:22:27;6.30;;;3.30;;
51618;SDS011;38518;53.164;5.430;2023-06-14T04:24:56;5.50;;;3.00;;
51618;SDS011;38518;53.164;5.430;2023-06-14T04:27:22;4.32;;;2.95;;
51618;SDS011;38518;53.164;5.430;2023-06-14T04:29:54;5.30;;;3.00;;
51618;SDS011;38518;53.164;5.430;2023-06-14T04:32:25;5.47;;;3.13;;
51618;SDS011;38518;53.164;5.430;2023-06-14T04:34:54;5.65;;;3.13;;
51618;SDS011;38518;53.164;5.430;2023-06-14T04:37:21;5.00;;;3.00;;
51618;SDS011;38518;53.164;5.430;2023-06-14T04:39:47;6.90;;;3.50;;
51618;SDS011;38518;53.164;5.430;2023-06-14T04:42:14;5.85;;;3.05;;
51618;SDS011;38518;53.164;5.430;2023-06-14T04:44:41;6.15;;;3.45;;
51618;SDS011;38518;53.164;5.430;2023-06-14T04:47:09;5.13;;;3.10;;
51618;SDS011;38518;53.164;5.430;2023-06-14T04:49:36;6.35;;;3.40;;
51618;SDS011;38518;53.164;5.430;2023-06-14T04:52:02;4.05;;;3.17;;
51618;SDS011;38518;53.164;5.430;2023-06-14T04:54:28;4.97;;;3.05;;
51618;SDS011;38518;53.164;5.430;2023-06-14T04:56:56;7.63;;;3.25;;
51618;SDS011;38518;53.164;5.430;2023-06-14T04:59:22;4.80;;;3.65;;
51618;SDS011;38518;53.164;5.430;2023-06-14T05:01:49;3.33;;;3.03;;
51618;SDS011;38518;53.164;5.430;2023-06-14T05:04:15;6.25;;;3.67;;
51618;SDS011;38518;53.164;5.430;2023-06-14T05:06:44;5.32;;;3.47;;
51618;SDS011;38518;53.164;5.430;2023-06-14T05:09:11;7.97;;;3.50;;
51618;SDS011;38518;53.164;5.430;2023-06-14T05:11:38;4.80;;;3.53;;
51618;SDS011;38518;53.164;5.430;2023-06-14T05:14:03;6.63;;;3.53;;
51618;SDS011;38518;53.164;5.430;2023-06-14T05:16:31;5.22;;;3.25;;
51618;SDS011;38518;53.164;5.430;2023-06-14T05:18:57;5.47;;;3.65;;
51618;SDS011;38518;53.164;5.430;2023-06-14T05:21:23;6.05;;;3.40;;
51618;SDS011;38518;53.164;5.430;2023-06-14T05:23:49;6.65;;;3.42;;
51618;SDS011;38518;53.164;5.430;2023-06-14T05:26:16;7.93;;;3.60;;
51618;SDS011;38518;53.164;5.430;2023-06-14T05:28:42;4.75;;;3.53;;
51618;SDS011;38518;53.164;5.430;2023-06-14T05:31:07;4.25;;;3.60;;
51618;SDS011;38518;53.164;5.430;2023-06-14T05:33:33;7.18;;;4.00;;
51618;SDS011;38518;53.164;5.430;2023-06-14T05:35:59;5.88;;;4.00;;
51618;SDS011;38518;53.164;5.430;2023-06-14T05:38:25;5.32;;;3.53;;
51618;SDS011;38518;53.164;5.430;2023-06-14T05:40:50;4.85;;;3.67;;
51618;SDS011;38518;53.164;5.430;2023-06-14T05:43:16;4.60;;;3.50;;
51618;SDS011;38518;53.164;5.430;2023-06-14T05:45:42;4.72;;;3.53;;
51618;SDS011;38518;53.164;5.430;2023-06-14T05:48:08;6.85;;;3.90;;
51618;SDS011;38518;53.164;5.430;2023-06-14T05:50:33;5.57;;;3.38;;
51618;SDS011;38518;53.164;5.430;2023-06-14T05:52:59;5.60;;;3.53;;
51618;SDS011;38518;53.164;5.430;2023-06-14T05:55:25;5.22;;;3.85;;
51618;SDS011;38518;53.164;5.430;2023-06-14T05:57:51;5.95;;;3.55;;
51618;SDS011;38518;53.164;5.430;2023-06-14T06:00:17;4.57;;;3.20;;
51618;SDS011;38518;53.164;5.430;2023-06-14T06:02:43;5.65;;;3.45;;
51618;SDS011;38518;53.164;5.430;2023-06-14T06:05:09;6.50;;;3.63;;
51618;SDS011;38518;53.164;5.430;2023-06-14T06:07:36;7.60;;;3.63;;
51618;SDS011;38518;53.164;5.430;2023-06-14T06:10:02;5.40;;;3.55;;
51618;SDS011;38518;53.164;5.430;2023-06-14T06:12:29;7.03;;;3.40;;
51618;SDS011;38518;53.164;5.430;2023-06-14T06:14:55;4.88;;;3.30;;
51618;SDS011;38518;53.164;5.430;2023-06-14T06:17:21;7.38;;;3.40;;
51618;SDS011;38518;53.164;5.430;2023-06-14T06:19:47;5.90;;;3.45;;
51618;SDS011;38518;53.164;5.430;2023-06-14T06:22:13;5.63;;;3.65;;
51618;SDS011;38518;53.164;5.430;2023-06-14T06:24:38;7.10;;;3.20;;
51618;SDS011;38518;53.164;5.430;2023-06-14T06:27:04;6.47;;;3.38;;
51618;SDS011;38518;53.164;5.430;2023-06-14T06:29:33;5.78;;;3.40;;
51618;SDS011;38518;53.164;5.430;2023-06-14T06:32:00;8.38;;;3.50;;
51618;SDS011;38518;53.164;5.430;2023-06-14T06:34:26;4.85;;;3.30;;
51618;SDS011;38518;53.164;5.430;2023-06-14T06:36:52;7.45;;;3.65;;
51618;SDS011;38518;53.164;5.430;2023-06-14T06:39:17;4.80;;;3.17;;
51618;SDS011;38518;53.164;5.430;2023-06-14T06:41:43;4.60;;;3.45;;
51618;SDS011;38518;53.164;5.430;2023-06-14T06:44:09;5.00;;;3.58;;
51618;SDS011;38518;53.164;5.430;2023-06-14T06:46:35;4.05;;;3.22;;
51618;SDS011;38518;53.164;5.430;2023-06-14T06:49:05;6.30;;;3.42;;
51618;SDS011;38518;53.164;5.430;2023-06-14T06:51:31;6.15;;;3.50;;
51618;SDS011;38518;53.164;5.430;2023-06-14T06:53:57;3.83;;;2.92;;
51618;SDS011;38518;53.164;5.430;2023-06-14T06:56:25;5.18;;;3.17;;
51618;SDS011;38518;53.164;5.430;2023-06-14T06:58:51;6.65;;;3.75;;
51618;SDS011;38518;53.164;5.430;2023-06-14T07:01:17;7.35;;;3.30;;
51618;SDS011;38518;53.164;5.430;2023-06-14T07:03:46;5.63;;;3.55;;
51618;SDS011;38518;53.164;5.430;2023-06-14T07:06:12;4.95;;;3.40;;
51618;SDS011;38518;53.164;5.430;2023-06-14T07:08:38;5.93;;;3.17;;
51618;SDS011;38518;53.164;5.430;2023-06-14T07:11:04;7.75;;;3.42;;
51618;SDS011;38518;53.164;5.430;2023-06-14T07:13:31;4.28;;;3.10;;
51618;SDS011;38518;53.164;5.430;2023-06-14T07:15:59;6.50;;;3.00;;
51618;SDS011;38518;53.164;5.430;2023-06-14T07:18:26;4.72;;;3.03;;
51618;SDS011;38518;53.164;5.430;2023-06-14T07:20:52;6.55;;;3.10;;
51618;SDS011;38518;53.164;5.430;2023-06-14T07:23:19;3.35;;;2.67;;
51618;SDS011;38518;53.164;5.430;2023-06-14T07:25:45;4.32;;;2.90;;
51618;SDS011;38518;53.164;5.430;2023-06-14T07:28:11;5.80;;;3.05;;
51618;SDS011;38518;53.164;5.430;2023-06-14T07:30:37;3.72;;;2.63;;
51618;SDS011;38518;53.164;5.430;2023-06-14T07:33:03;3.20;;;2.50;;
51618;SDS011;38518;53.164;5.430;2023-06-14T07:35:29;4.03;;;2.63;;
51618;SDS011;38518;53.164;5.430;2023-06-14T07:37:55;4.40;;;2.53;;
51618;SDS011;38518;53.164;5.430;2023-06-14T07:40:21;4.05;;;2.58;;
51618;SDS011;38518;53.164;5.430;2023-06-14T07:42:46;5.07;;;2.53;;
51618;SDS011;38518;53.164;5.430;2023-06-14T07:45:15;3.78;;;2.30;;
51618;SDS011;38518;53.164;5.430;2023-06-14T07:47:41;4.40;;;2.90;;
51618;SDS011;38518;53.164;5.430;2023-06-14T07:50:07;4.47;;;2.55;;
51618;SDS011;38518;53.164;5.430;2023-06-14T07:52:34;4.30;;;2.38;;
51618;SDS011;38518;53.164;5.430;2023-06-14T07:55:00;2.72;;;2.10;;
51618;SDS011;38518;53.164;5.430;2023-06-14T07:57:25;2.75;;;2.30;;
51618;SDS011;38518;53.164;5.430;2023-06-14T07:59:51;4.22;;;2.30;;
51618;SDS011;38518;53.164;5.430;2023-06-14T08:02:17;4.88;;;2.38;;
51618;SDS011;38518;53.164;5.430;2023-06-14T08:04:43;5.20;;;2.30;;
51618;SDS011;38518;53.164;5.430;2023-06-14T08:07:09;5.85;;;2.40;;
51618;SDS011;38518;53.164;5.430;2023-06-14T08:09:35;6.55;;;2.42;;
51618;SDS011;38518;53.164;5.430;2023-06-14T08:12:04;2.20;;;2.00;;
51618;SDS011;38518;53.164;5.430;2023-06-14T08:14:33;3.28;;;2.40;;
51618;SDS011;38518;53.164;5.430;2023-06-14T08:16:59;4.82;;;2.22;;
51618;SDS011;38518;53.164;5.430;2023-06-14T08:19:25;4.45;;;2.25;;
51618;SDS011;38518;53.164;5.430;2023-06-14T08:21:51;2.30;;;2.03;;
51618;SDS011;38518;53.164;5.430;2023-06-14T08:24:16;2.97;;;2.10;;
51618;SDS011;38518;53.164;5.430;2023-06-14T08:26:44;4.60;;;2.15;;
51618;SDS011;38518;53.164;5.430;2023-06-14T08:29:09;2.53;;;1.90;;
51618;SDS011;38518;53.164;5.430;2023-06-14T08:31:35;4.72;;;1.83;;
51618;SDS011;38518;53.164;5.430;2023-06-14T08:34:01;2.63;;;1.90;;
51618;SDS011;38518;53.164;5.430;2023-06-14T08:36:27;4.63;;;2.00;;
51618;SDS011;38518;53.164;5.430;2023-06-14T08:38:53;3.65;;;2.28;;
51618;SDS011;38518;53.164;5.430;2023-06-14T08:41:22;5.22;;;2.13;;
51618;SDS011;38518;53.164;5.430;2023-06-14T08:43:51;2.40;;;2.00;;
51618;SDS011;38518;53.164;5.430;2023-06-14T08:46:18;3.15;;;2.00;;
51618;SDS011;38518;53.164;5.430;2023-06-14T08:48:51;4.38;;;1.98;;
51618;SDS011;38518;53.164;5.430;2023-06-14T08:51:18;4.25;;;2.17;;
51618;SDS011;38518;53.164;5.430;2023-06-14T08:53:44;3.45;;;2.15;;
51618;SDS011;38518;53.164;5.430;2023-06-14T08:56:11;2.20;;;2.00;;
51618;SDS011;38518;53.164;5.430;2023-06-14T08:58:42;2.60;;;2.00;;
51618;SDS011;38518;53.164;5.430;2023-06-14T09:01:13;2.30;;;2.10;;
51618;SDS011;38518;53.164;5.430;2023-06-14T09:03:41;4.45;;;2.28;;
51618;SDS011;38518;53.164;5.430;2023-06-14T09:06:08;3.83;;;2.13;;
51618;SDS011;38518;53.164;5.430;2023-06-14T09:08:42;8.80;;;2.20;;
51618;SDS011;38518;53.164;5.430;2023-06-14T09:11:13;3.90;;;2.17;;
51618;SDS011;38518;53.164;5.430;2023-06-14T09:13:40;3.00;;;2.22;;
51618;SDS011;38518;53.164;5.430;2023-06-14T09:16:07;4.50;;;2.15;;
51618;SDS011;38518;53.164;5.430;2023-06-14T09:18:36;2.42;;;2.00;;
51618;SDS011;38518;53.164;5.430;2023-06-14T09:21:06;3.78;;;2.08;;
51618;SDS011;38518;53.164;5.430;2023-06-14T09:23:33;4.38;;;2.20;;
51618;SDS011;38518;53.164;5.430;2023-06-14T09:26:08;4.60;;;2.17;;
51618;SDS011;38518;53.164;5.430;2023-06-14T09:28:35;2.85;;;2.10;;
51618;SDS011;38518;53.164;5.430;2023-06-14T09:31:01;3.30;;;1.80;;
51618;SDS011;38518;53.164;5.430;2023-06-14T09:33:27;2.95;;;1.98;;
51618;SDS011;38518;53.164;5.430;2023-06-14T09:35:54;2.28;;;1.90;;
51618;SDS011;38518;53.164;5.430;2023-06-14T09:38:20;4.13;;;2.08;;
51618;SDS011;38518;53.164;5.430;2023-06-14T09:40:49;5.00;;;2.58;;
51618;SDS011;38518;53.164;5.430;2023-06-14T09:43:15;2.50;;;2.30;;
51618;SDS011;38518;53.164;5.430;2023-06-14T09:45:41;5.03;;;2.40;;
51618;SDS011;38518;53.164;5.430;2023-06-14T09:48:11;3.75;;;2.50;;
51618;SDS011;38518;53.164;5.430;2023-06-14T09:50:37;4.10;;;2.20;;
51618;SDS011;38518;53.164;5.430;2023-06-14T09:53:09;4.88;;;2.22;;
51618;SDS011;38518;53.164;5.430;2023-06-14T09:55:37;3.90;;;2.25;;
51618;SDS011;38518;53.164;5.430;2023-06-14T09:58:06;5.35;;;2.58;;
51618;SDS011;38518;53.164;5.430;2023-06-14T10:00:32;4.47;;;2.67;;
51618;SDS011;38518;53.164;5.430;2023-06-14T10:03:09;4.50;;;2.40;;
51618;SDS011;38518;53.164;5.430;2023-06-14T10:05:38;3.00;;;2.13;;
51618;SDS011;38518;53.164;5.430;2023-06-14T10:08:10;4.15;;;2.22;;
51618;SDS011;38518;53.164;5.430;2023-06-14T10:10:43;4.70;;;2.40;;
51618;SDS011;38518;53.164;5.430;2023-06-14T10:13:09;4.47;;;2.40;;
51618;SDS011;38518;53.164;5.430;2023-06-14T10:21:41;6.05;;;2.58;;
51618;SDS011;38518;53.164;5.430;2023-06-14T10:24:18;4.88;;;2.33;;
51618;SDS011;38518;53.164;5.430;2023-06-14T10:26:51;4.65;;;2.40;;
51618;SDS011;38518;53.164;5.430;2023-06-14T10:29:19;6.88;;;2.05;;
51618;SDS011;38518;53.164;5.430;2023-06-14T10:31:46;3.20;;;2.30;;
51618;SDS011;38518;53.164;5.430;2023-06-14T10:34:20;4.07;;;2.38;;
51618;SDS011;38518;53.164;5.430;2023-06-14T10:39:45;7.38;;;2.28;;
51618;SDS011;38518;53.164;5.430;2023-06-14T10:42:11;4.97;;;2.10;;
51618;SDS011;38518;53.164;5.430;2023-06-14T10:44:42;4.25;;;2.42;;
51618;SDS011;38518;53.164;5.430;2023-06-14T10:47:23;3.47;;;1.90;;
51618;SDS011;38518;53.164;5.430;2023-06-14T10:49:55;4.10;;;2.20;;
51618;SDS011;38518;53.164;5.430;2023-06-14T10:52:35;3.17;;;2.00;;
51618;SDS011;38518;53.164;5.430;2023-06-14T10:55:16;3.78;;;2.00;;
51618;SDS011;38518;53.164;5.430;2023-06-14T11:00:16;3.60;;;1.77;;
51618;SDS011;38518;53.164;5.430;2023-06-14T11:05:57;2.30;;;1.98;;
51618;SDS011;38518;53.164;5.430;2023-06-14T11:08:40;4.85;;;2.08;;
51618;SDS011;38518;53.164;5.430;2023-06-14T11:11:31;3.55;;;1.77;;
51618;SDS011;38518;53.164;5.430;2023-06-14T11:14:00;4.33;;;2.10;;
51618;SDS011;38518;53.164;5.430;2023-06-14T11:16:27;2.38;;;2.10;;
51618;SDS011;38518;53.164;5.430;2023-06-14T11:18:53;4.03;;;2.10;;
51618;SDS011;38518;53.164;5.430;2023-06-14T11:21:20;3.88;;;2.03;;
51618;SDS011;38518;53.164;5.430;2023-06-14T11:23:49;3.35;;;1.90;;
51618;SDS011;38518;53.164;5.430;2023-06-14T11:28:56;3.72;;;2.15;;
51618;SDS011;38518;53.164;5.430;2023-06-14T11:31:24;3.38;;;1.90;;
51618;SDS011;38518;53.164;5.430;2023-06-14T11:33:53;3.22;;;2.08;;
51618;SDS011;38518;53.164;5.430;2023-06-14T11:36:20;2.78;;;2.20;;
51618;SDS011;38518;53.164;5.430;2023-06-14T11:38:46;5.63;;;2.20;;
51618;SDS011;38518;53.164;5.430;2023-06-14T11:41:12;4.72;;;2.22;;
51618;SDS011;38518;53.164;5.430;2023-06-14T11:43:39;9.38;;;2.30;;
51618;SDS011;38518;53.164;5.430;2023-06-14T11:46:11;3.88;;;2.22;;
51618;SDS011;38518;53.164;5.430;2023-06-14T11:48:40;2.92;;;2.38;;
51618;SDS011;38518;53.164;5.430;2023-06-14T11:51:07;3.42;;;2.22;;
51618;SDS011;38518;53.164;5.430;2023-06-14T11:53:33;6.72;;;2.45;;
51618;SDS011;38518;53.164;5.430;2023-06-14T11:55:59;5.15;;;2.30;;
51618;SDS011;38518;53.164;5.430;2023-06-14T11:58:26;4.57;;;2.30;;
51618;SDS011;38518;53.164;5.430;2023-06-14T12:00:53;4.25;;;2.05;;
51618;SDS011;38518;53.164;5.430;2023-06-14T12:03:23;2.50;;;2.08;;
51618;SDS011;38518;53.164;5.430;2023-06-14T12:06:06;4.45;;;2.22;;
51618;SDS011;38518;53.164;5.430;2023-06-14T12:08:33;5.72;;;2.55;;
51618;SDS011;38518;53.164;5.430;2023-06-14T12:11:13;5.57;;;2.33;;
51618;SDS011;38518;53.164;5.430;2023-06-14T12:13:40;4.30;;;2.30;;
51618;SDS011;38518;53.164;5.430;2023-06-14T12:16:07;4.25;;;2.33;;
51618;SDS011;38518;53.164;5.430;2023-06-14T12:18:37;4.78;;;2.20;;
51618;SDS011;38518;53.164;5.430;2023-06-14T12:21:06;4.22;;;2.10;;
51618;SDS011;38518;53.164;5.430;2023-06-14T12:26:12;4.85;;;2.60;;
51618;SDS011;38518;53.164;5.430;2023-06-14T12:28:42;5.40;;;2.35;;
51618;SDS011;38518;53.164;5.430;2023-06-14T12:31:10;5.78;;;2.47;;
51618;SDS011;38518;53.164;5.430;2023-06-14T12:33:38;1.83;;;1.70;;
51618;SDS011;38518;53.164;5.430;2023-06-14T12:36:04;5.25;;;1.98;;
51618;SDS011;38518;53.164;5.430;2023-06-14T12:38:32;5.13;;;2.25;;
51618;SDS011;38518;53.164;5.430;2023-06-14T12:40:58;3.25;;;2.20;;
51618;SDS011;38518;53.164;5.430;2023-06-14T12:43:25;6.38;;;2.28;;
51618;SDS011;38518;53.164;5.430;2023-06-14T12:45:51;3.90;;;2.00;;
51618;SDS011;38518;53.164;5.430;2023-06-14T12:48:17;4.38;;;2.13;;
51618;SDS011;38518;53.164;5.430;2023-06-14T12:50:43;5.90;;;2.20;;
51618;SDS011;38518;53.164;5.430;2023-06-14T12:53:08;4.03;;;2.20;;
51618;SDS011;38518;53.164;5.430;2023-06-14T12:55:34;3.53;;;2.30;;
51618;SDS011;38518;53.164;5.430;2023-06-14T12:58:00;5.82;;;2.53;;
51618;SDS011;38518;53.164;5.430;2023-06-14T13:00:26;4.70;;;2.20;;
51618;SDS011;38518;53.164;5.430;2023-06-14T13:02:52;4.35;;;2.20;;
51618;SDS011;38518;53.164;5.430;2023-06-14T13:05:18;3.38;;;2.22;;
51618;SDS011;38518;53.164;5.430;2023-06-14T13:07:44;4.30;;;2.30;;
51618;SDS011;38518;53.164;5.430;2023-06-14T13:10:10;4.45;;;2.10;;
51618;SDS011;38518;53.164;5.430;2023-06-14T13:12:36;8.43;;;2.40;;
51618;SDS011;38518;53.164;5.430;2023-06-14T13:15:01;5.13;;;2.30;;
51618;SDS011;38518;53.164;5.430;2023-06-14T13:17:27;3.47;;;2.30;;
51618;SDS011;38518;53.164;5.430;2023-06-14T13:19:53;2.92;;;2.38;;
51618;SDS011;38518;53.164;5.430;2023-06-14T13:22:19;3.80;;;2.15;;
51618;SDS011;38518;53.164;5.430;2023-06-14T13:24:45;6.05;;;2.75;;
51618;SDS011;38518;53.164;5.430;2023-06-14T13:27:11;4.53;;;2.60;;
51618;SDS011;38518;53.164;5.430;2023-06-14T13:29:39;6.50;;;2.78;;
51618;SDS011;38518;53.164;5.430;2023-06-14T13:32:05;5.65;;;2.55;;
51618;SDS011;38518;53.164;5.430;2023-06-14T13:34:32;5.25;;;2.90;;
51618;SDS011;38518;53.164;5.430;2023-06-14T13:36:57;5.28;;;2.65;;
51618;SDS011;38518;53.164;5.430;2023-06-14T13:39:26;11.32;;;3.25;;
51618;SDS011;38518;53.164;5.430;2023-06-14T13:41:51;10.82;;;3.20;;
51618;SDS011;38518;53.164;5.430;2023-06-14T13:44:17;4.10;;;2.60;;
51618;SDS011;38518;53.164;5.430;2023-06-14T13:46:46;7.00;;;2.92;;
51618;SDS011;38518;53.164;5.430;2023-06-14T13:49:12;4.90;;;3.00;;
51618;SDS011;38518;53.164;5.430;2023-06-14T13:51:38;7.40;;;3.13;;
51618;SDS011;38518;53.164;5.430;2023-06-14T13:54:04;4.32;;;2.80;;
51618;SDS011;38518;53.164;5.430;2023-06-14T13:56:30;7.30;;;2.67;;
51618;SDS011;38518;53.164;5.430;2023-06-14T13:58:55;7.75;;;3.40;;
51618;SDS011;38518;53.164;5.430;2023-06-14T14:01:21;4.00;;;3.10;;
51618;SDS011;38518;53.164;5.430;2023-06-14T14:03:48;5.38;;;2.67;;
51618;SDS011;38518;53.164;5.430;2023-06-14T14:06:15;3.80;;;2.50;;
51618;SDS011;38518;53.164;5.430;2023-06-14T14:08:41;5.35;;;2.83;;
51618;SDS011;38518;53.164;5.430;2023-06-14T14:11:07;5.93;;;2.88;;
51618;SDS011;38518;53.164;5.430;2023-06-14T14:13:34;6.93;;;2.72;;
51618;SDS011;38518;53.164;5.430;2023-06-14T14:16:05;5.47;;;3.17;;
51618;SDS011;38518;53.164;5.430;2023-06-14T14:18:31;6.53;;;2.85;;
51618;SDS011;38518;53.164;5.430;2023-06-14T14:20:57;10.10;;;4.00;;
51618;SDS011;38518;53.164;5.430;2023-06-14T14:23:23;5.78;;;2.80;;
51618;SDS011;38518;53.164;5.430;2023-06-14T14:25:49;8.02;;;3.03;;
51618;SDS011;38518;53.164;5.430;2023-06-14T14:28:15;6.95;;;2.95;;
51618;SDS011;38518;53.164;5.430;2023-06-14T14:30:44;7.80;;;3.20;;
51618;SDS011;38518;53.164;5.430;2023-06-14T14:33:12;4.88;;;2.95;;
51618;SDS011;38518;53.164;5.430;2023-06-14T14:35:44;6.72;;;2.92;;
51618;SDS011;38518;53.164;5.430;2023-06-14T14:38:16;5.43;;;2.97;;
51618;SDS011;38518;53.164;5.430;2023-06-14T14:40:42;4.75;;;3.05;;
51618;SDS011;38518;53.164;5.430;2023-06-14T14:43:11;8.55;;;3.15;;
51618;SDS011;38518;53.164;5.430;2023-06-14T14:45:43;8.32;;;3.10;;
51618;SDS011;38518;53.164;5.430;2023-06-14T14:48:09;5.03;;;2.78;;
51618;SDS011;38518;53.164;5.430;2023-06-14T14:50:35;8.00;;;2.97;;
51618;SDS011;38518;53.164;5.430;2023-06-14T14:53:01;7.80;;;2.80;;
51618;SDS011;38518;53.164;5.430;2023-06-14T14:55:26;5.07;;;2.70;;
51618;SDS011;38518;53.164;5.430;2023-06-14T14:57:52;5.60;;;2.90;;
51618;SDS011;38518;53.164;5.430;2023-06-14T15:00:18;5.28;;;2.80;;
51618;SDS011;38518;53.164;5.430;2023-06-14T15:02:44;5.57;;;2.60;;
51618;SDS011;38518;53.164;5.430;2023-06-14T15:05:10;8.73;;;3.47;;
51618;SDS011;38518;53.164;5.430;2023-06-14T15:07:36;5.60;;;2.67;;
51618;SDS011;38518;53.164;5.430;2023-06-14T15:10:02;7.05;;;3.10;;
51618;SDS011;38518;53.164;5.430;2023-06-14T15:12:28;4.97;;;2.60;;